createdAt,value
2022-08-18T00:01:11.109Z,80.33
2022-08-18T00:03:56.825Z,80.22
2022-08-18T00:06:24.574Z,80.44
2022-08-18T00:08:56.148Z,80.80
2022-08-18T00:11:23.755Z,81.10
2022-08-18T00:13:50.605Z,81.35
2022-08-18T00:16:17.431Z,81.28
2022-08-18T00:18:44.200Z,81.43
2022-08-18T00:21:10.944Z,81.70
2022-08-18T00:23:38.808Z,81.86
2022-08-18T00:26:05.873Z,82.13
2022-08-18T00:28:32.643Z,82.45
2022-08-18T00:30:59.429Z,83.02
2022-08-18T00:33:26.409Z,83.18
2022-08-18T00:35:53.409Z,83.17
2022-08-18T00:38:24.367Z,83.44
2022-08-18T00:40:52.509Z,83.61
2022-08-18T00:43:27.925Z,83.59
2022-08-18T00:45:54.661Z,83.62
2022-08-18T00:48:23.848Z,83.65
2022-08-18T00:51:03.176Z,83.79
2022-08-18T00:53:45.866Z,83.93
2022-08-18T00:56:16.703Z,83.68
2022-08-18T00:58:49.512Z,83.61
2022-08-18T01:01:16.661Z,83.79
2022-08-18T01:03:43.826Z,84.05
2022-08-18T01:06:17.754Z,84.24
2022-08-18T01:08:44.555Z,84.16
2022-08-18T01:11:11.253Z,84.07
2022-08-18T01:13:39.500Z,84.18
2022-08-18T01:16:26.436Z,84.06
2022-08-18T01:19:11.912Z,84.14
2022-08-18T01:21:53.578Z,84.04
2022-08-18T01:24:45.564Z,83.99
2022-08-18T01:27:18.612Z,83.98
2022-08-18T01:29:46.879Z,83.94
2022-08-18T01:32:19.735Z,83.92
2022-08-18T01:34:48.140Z,83.73
2022-08-18T01:37:16.851Z,83.60
2022-08-18T01:41:11.010Z,83.58
2022-08-18T01:42:30.981Z,83.45
2022-08-18T01:44:57.689Z,83.38
2022-08-18T01:47:24.529Z,83.33
2022-08-18T01:49:53.429Z,83.25
2022-08-18T01:52:21.188Z,83.19
2022-08-18T01:54:48.526Z,83.14
2022-08-18T01:57:16.268Z,83.09
2022-08-18T01:59:43.158Z,83.00
2022-08-18T02:02:18.193Z,82.96
2022-08-18T02:04:45.345Z,82.89
2022-08-18T02:07:12.747Z,82.72
2022-08-18T02:09:39.956Z,82.72
2022-08-18T02:12:07.398Z,82.71
2022-08-18T02:14:35.601Z,82.71
2022-08-18T02:17:03.220Z,82.71
2022-08-18T02:19:38.534Z,82.63
2022-08-18T02:22:05.637Z,82.69
2022-08-18T02:24:32.386Z,82.67
2022-08-18T02:26:59.141Z,82.64
2022-08-18T02:29:25.892Z,82.54
2022-08-18T02:31:52.585Z,82.58
2022-08-18T02:34:19.332Z,82.56
2022-08-18T02:36:46.068Z,82.55
2022-08-18T02:39:12.898Z,82.57
2022-08-18T02:41:39.629Z,82.45
2022-08-18T02:44:07.628Z,82.32
2022-08-18T02:46:34.639Z,82.33
2022-08-18T02:49:01.578Z,82.38
2022-08-18T02:51:28.581Z,82.50
2022-08-18T02:53:55.394Z,82.49
2022-08-18T02:56:40.784Z,82.55
2022-08-18T02:59:10.607Z,82.48
2022-08-18T03:01:39.950Z,82.60
2022-08-18T03:04:07.878Z,82.62
2022-08-18T03:06:36.584Z,82.72
2022-08-18T03:09:04.756Z,82.79
2022-08-18T03:11:31.920Z,82.78
2022-08-18T03:13:59.623Z,82.88
2022-08-18T03:16:26.535Z,83.07
2022-08-18T03:18:53.663Z,82.95
2022-08-18T03:21:23.397Z,82.83
2022-08-18T03:24:00.294Z,82.85
2022-08-18T03:26:28.800Z,82.64
2022-08-18T03:28:55.594Z,82.61
2022-08-18T03:31:23.594Z,82.42
2022-08-18T03:33:51.600Z,82.42
2022-08-18T03:36:21.028Z,82.39
2022-08-18T03:38:50.994Z,82.39
2022-08-18T03:41:43.421Z,82.35
2022-08-18T03:44:10.706Z,82.38
2022-08-18T03:46:37.499Z,82.49
2022-08-18T03:49:04.266Z,82.33
2022-08-18T03:51:34.394Z,82.29
2022-08-18T03:54:01.928Z,82.33
2022-08-18T03:56:33.684Z,82.19
2022-08-18T03:59:03.032Z,82.03
2022-08-18T04:01:32.946Z,81.85
2022-08-18T04:04:02.243Z,81.85
2022-08-18T04:06:45.825Z,81.88
2022-08-18T04:09:14.212Z,81.86
2022-08-18T04:11:44.466Z,81.70
2022-08-18T04:14:15.824Z,81.63
2022-08-18T04:16:42.699Z,81.68
2022-08-18T04:19:10.081Z,81.42
2022-08-18T04:21:38.421Z,81.22
2022-08-18T04:24:05.690Z,81.03
2022-08-18T04:26:33.257Z,80.94
2022-08-18T04:29:02.817Z,80.79
2022-08-18T04:31:31.047Z,80.67
2022-08-18T04:33:58.570Z,80.50
2022-08-18T04:36:25.431Z,80.53
2022-08-18T04:38:52.187Z,80.22
2022-08-18T04:41:27.490Z,79.77
2022-08-18T04:43:58.325Z,79.25
2022-08-18T04:46:26.382Z,79.26
2022-08-18T04:48:58.597Z,78.80
2022-08-18T04:52:38.459Z,78.10
2022-08-18T04:54:13.273Z,77.80
2022-08-18T04:56:40.082Z,77.67
2022-08-18T04:59:12.096Z,77.28
2022-08-18T05:01:42.214Z,76.83
2022-08-18T05:04:09.107Z,76.24
2022-08-18T05:06:36.073Z,75.49
2022-08-18T05:09:04.918Z,74.88
2022-08-18T05:11:33.638Z,74.12
2022-08-18T05:14:01.335Z,73.41
2022-08-18T05:19:42.306Z,71.66
2022-08-18T05:22:11.448Z,70.68
2022-08-18T05:24:41.210Z,69.97
2022-08-18T05:27:08.007Z,68.75
2022-08-18T05:29:45.929Z,67.89
2022-08-18T05:32:38.274Z,66.74
2022-08-18T05:35:10.169Z,66.50
2022-08-18T05:37:47.492Z,65.86
2022-08-18T05:40:14.572Z,65.08
2022-08-18T05:42:41.369Z,64.30
2022-08-18T05:45:12.952Z,64.01
2022-08-18T05:47:39.728Z,63.46
2022-08-18T05:50:09.120Z,63.02
2022-08-18T05:52:51.446Z,62.35
2022-08-18T05:55:49.481Z,62.17
2022-08-18T05:58:19.100Z,61.85
2022-08-18T06:01:02.487Z,61.86
2022-08-18T06:03:45.137Z,61.18
2022-08-18T06:06:21.044Z,60.78
2022-08-18T06:08:58.652Z,60.80
2022-08-18T06:11:25.967Z,61.32
2022-08-18T06:13:59.634Z,61.37
2022-08-18T06:16:48.218Z,61.27
2022-08-18T06:19:40.860Z,61.33
2022-08-18T06:22:25.987Z,61.09
2022-08-18T06:25:06.129Z,61.61
2022-08-18T06:27:55.702Z,61.63
2022-08-18T06:30:56.971Z,62.06
2022-08-18T06:33:50.289Z,61.82
2022-08-18T06:36:50.251Z,61.99
2022-08-18T06:39:30.920Z,62.10
2022-08-18T06:41:57.856Z,62.41
2022-08-18T06:44:34.371Z,62.39
2022-08-18T06:47:19.905Z,62.64
2022-08-18T06:49:54.888Z,62.88
2022-08-18T06:52:22.707Z,63.12
2022-08-18T06:54:51.382Z,63.42
2022-08-18T06:57:25.167Z,63.00
2022-08-18T06:59:56.840Z,63.29
2022-08-18T07:02:52.830Z,62.82
2022-08-18T07:05:29.425Z,62.75
2022-08-18T07:08:15.924Z,62.81
2022-08-18T07:10:50.248Z,62.92
2022-08-18T07:13:27.215Z,63.31
2022-08-18T07:15:55.739Z,63.25
2022-08-18T07:18:25.174Z,62.89
2022-08-18T07:21:01.815Z,63.09
2022-08-18T07:23:30.346Z,62.75
2022-08-18T07:26:11.043Z,62.39
2022-08-18T07:28:45.007Z,62.67
2022-08-18T07:31:17.308Z,61.61
2022-08-18T07:33:48.300Z,60.21
2022-08-18T07:36:15.035Z,60.30
2022-08-18T07:38:48.705Z,60.12
2022-08-18T07:41:20.561Z,60.29
2022-08-18T07:43:53.488Z,59.59
2022-08-18T07:46:31.790Z,59.26
2022-08-18T07:49:01.378Z,59.41
2022-08-18T07:51:47.668Z,58.35
2022-08-18T07:54:48.935Z,58.45
2022-08-18T07:57:25.255Z,58.37
2022-08-18T08:00:05.155Z,58.48
2022-08-18T08:02:50.084Z,58.18
2022-08-18T08:05:35.834Z,58.42
2022-08-18T08:08:11.675Z,58.24
2022-08-18T08:10:45.938Z,58.18
2022-08-18T08:13:36.865Z,58.16
2022-08-18T08:16:44.387Z,58.44
2022-08-18T08:20:08.586Z,58.82
2022-08-18T08:23:01.065Z,58.97
2022-08-18T08:25:47.138Z,59.22
2022-08-18T08:28:16.818Z,59.18
2022-08-18T08:31:37.963Z,58.85
2022-08-18T08:34:20.127Z,59.71
2022-08-18T08:36:47.555Z,59.76
2022-08-18T08:39:21.443Z,59.78
2022-08-18T08:42:30.658Z,58.86
2022-08-18T08:45:28.122Z,58.59
2022-08-18T08:48:09.292Z,58.67
2022-08-18T08:50:43.064Z,58.43
2022-08-18T08:53:38.463Z,58.14
2022-08-18T08:56:09.819Z,58.84
2022-08-18T08:58:54.733Z,59.01
2022-08-18T09:01:27.983Z,58.37
2022-08-18T09:04:27.047Z,58.34
2022-08-18T09:07:05.517Z,58.60
2022-08-18T09:09:56.970Z,59.13
2022-08-18T09:12:41.348Z,58.21
2022-08-18T09:15:15.250Z,58.13
2022-08-18T09:18:15.678Z,58.18
2022-08-18T09:21:12.804Z,57.58
2022-08-18T09:23:41.396Z,57.51
2022-08-18T09:26:39.719Z,57.48
2022-08-18T09:29:27.364Z,57.36
2022-08-18T09:32:18.768Z,58.19
2022-08-18T09:34:48.250Z,56.95
2022-08-18T09:37:24.503Z,56.85
2022-08-18T09:40:14.407Z,57.13
2022-08-18T09:42:59.829Z,56.57
2022-08-18T09:45:33.617Z,56.31
2022-08-18T09:48:03.047Z,56.14
2022-08-18T09:50:36.067Z,56.14
2022-08-18T09:53:52.591Z,56.32
2022-08-18T09:56:58.092Z,56.12
2022-08-18T09:59:34.592Z,55.66
2022-08-18T10:02:28.083Z,55.15
2022-08-18T10:05:20.095Z,55.06
2022-08-18T10:07:50.595Z,55.12
2022-08-18T10:11:00.651Z,55.39
2022-08-18T10:13:38.654Z,55.42
2022-08-18T10:16:14.324Z,54.67
2022-08-18T10:18:46.261Z,54.33
2022-08-18T10:21:18.867Z,54.35
2022-08-18T10:24:32.293Z,53.48
2022-08-18T10:27:02.620Z,52.87
2022-08-18T10:29:31.724Z,52.53
2022-08-18T10:32:01.437Z,51.92
2022-08-18T10:34:28.171Z,52.60
2022-08-18T10:36:59.079Z,53.06
2022-08-18T10:39:41.231Z,52.78
2022-08-18T10:42:30.983Z,52.62
2022-08-18T10:45:33.450Z,52.25
2022-08-18T10:48:16.776Z,52.13
2022-08-18T10:50:51.339Z,52.36
2022-08-18T10:53:44.354Z,51.66
2022-08-18T10:56:11.717Z,51.88
2022-08-18T10:58:42.082Z,51.53
2022-08-18T11:01:14.946Z,51.41
2022-08-18T11:04:01.006Z,51.43
2022-08-18T11:06:43.916Z,51.43
2022-08-18T11:09:11.651Z,51.09
2022-08-18T11:14:42.829Z,51.39
2022-08-18T11:17:36.285Z,51.01
2022-08-18T11:20:09.359Z,50.93
2022-08-18T11:22:36.517Z,50.82
2022-08-18T11:25:19.073Z,50.80
2022-08-18T11:27:47.495Z,50.43
2022-08-18T11:30:15.572Z,50.53
2022-08-18T11:32:55.200Z,50.93
2022-08-18T11:35:29.793Z,50.83
2022-08-18T11:38:00.064Z,50.68
2022-08-18T11:43:41.700Z,50.67
2022-08-18T11:46:29.999Z,50.90
2022-08-18T11:49:13.742Z,50.42
2022-08-18T11:51:54.638Z,50.26
2022-08-18T11:54:23.481Z,50.47
2022-08-18T11:56:51.401Z,50.49
2022-08-18T11:59:52.702Z,50.63
2022-08-18T12:02:19.209Z,50.40
2022-08-18T12:04:50.464Z,50.28
2022-08-18T12:07:20.316Z,50.33
2022-08-18T12:12:44.609Z,50.28
2022-08-18T12:15:17.440Z,49.94
2022-08-18T12:17:52.474Z,49.79
2022-08-18T12:20:20.231Z,49.33
2022-08-18T12:22:47.142Z,49.38
2022-08-18T12:25:16.366Z,49.37
2022-08-18T12:27:51.876Z,49.22
2022-08-18T12:30:19.204Z,49.26
2022-08-18T12:33:04.857Z,49.68
2022-08-18T12:35:32.910Z,49.55
2022-08-18T12:38:03.530Z,49.38
2022-08-18T12:40:40.732Z,49.54
2022-08-18T12:43:07.635Z,50.05
2022-08-18T12:45:34.666Z,49.38
2022-08-18T12:48:04.698Z,48.95
2022-08-18T12:50:36.204Z,48.67
2022-08-18T12:53:04.684Z,47.94
2022-08-18T12:55:34.086Z,48.14
2022-08-18T12:58:01.930Z,48.31
2022-08-18T13:03:15.386Z,48.57
2022-08-18T13:05:42.787Z,48.92
2022-08-18T13:08:30.060Z,48.89
2022-08-18T13:11:14.640Z,49.17
2022-08-18T13:13:42.761Z,48.97
2022-08-18T13:16:09.759Z,48.65
2022-08-18T13:18:43.361Z,48.48
2022-08-18T13:21:12.392Z,48.06
2022-08-18T13:23:39.836Z,48.33
2022-08-18T13:26:09.666Z,48.23
2022-08-18T13:28:51.565Z,48.15
2022-08-18T13:31:23.661Z,48.06
2022-08-18T13:33:56.898Z,48.56
2022-08-18T13:36:26.356Z,48.19
2022-08-18T13:38:55.749Z,47.60
2022-08-18T13:43:51.443Z,47.38
2022-08-18T13:46:19.754Z,47.90
2022-08-18T13:48:59.954Z,47.75
2022-08-18T13:51:27.962Z,47.35
2022-08-18T13:54:17.756Z,47.75
2022-08-18T13:56:42.939Z,48.09
2022-08-18T13:59:20.712Z,47.79
2022-08-18T14:01:51.595Z,48.33
2022-08-18T14:04:20.437Z,48.12
2022-08-18T14:06:56.436Z,47.80
2022-08-18T14:09:36.033Z,47.63
2022-08-18T14:12:15.830Z,47.45
2022-08-18T14:14:52.056Z,47.28
2022-08-18T14:17:20.216Z,47.17
2022-08-18T14:20:10.325Z,47.87
2022-08-18T14:23:00.183Z,48.17
2022-08-18T14:25:46.090Z,47.44
2022-08-18T14:28:12.876Z,46.54
2022-08-18T14:30:39.653Z,46.40
2022-08-18T14:33:07.808Z,46.50
2022-08-18T14:36:06.055Z,46.55
2022-08-18T14:38:25.420Z,46.82
2022-08-18T14:40:52.172Z,46.59
2022-08-18T14:43:22.011Z,46.71
2022-08-18T14:45:53.722Z,47.06
2022-08-18T14:48:27.485Z,47.37
2022-08-18T14:50:55.592Z,47.56
2022-08-18T14:53:23.865Z,47.58
2022-08-18T14:55:52.506Z,47.38
2022-08-18T14:58:20.748Z,47.38
2022-08-18T15:00:53.616Z,47.27
2022-08-18T15:03:30.764Z,47.24
2022-08-18T15:05:58.546Z,47.39
2022-08-18T15:08:26.853Z,47.46
2022-08-18T15:10:54.130Z,47.60
2022-08-18T15:13:20.915Z,47.00
2022-08-18T15:15:53.589Z,47.07
2022-08-18T15:18:22.491Z,47.09
2022-08-18T15:21:10.322Z,47.22
2022-08-18T15:24:05.372Z,47.39
2022-08-18T15:26:46.374Z,47.33
2022-08-18T15:29:18.569Z,47.32
2022-08-18T15:31:50.785Z,47.15
2022-08-18T15:34:20.745Z,47.14
2022-08-18T15:36:47.854Z,47.37
2022-08-18T15:39:14.802Z,47.09
2022-08-18T15:41:45.547Z,47.19
2022-08-18T15:44:14.444Z,46.88
2022-08-18T15:46:41.294Z,46.78
2022-08-18T15:49:15.056Z,46.83
2022-08-18T15:51:42.495Z,47.31
2022-08-18T15:54:12.341Z,47.60
2022-08-18T15:56:43.261Z,47.75
2022-08-18T15:59:10.868Z,47.61
2022-08-18T16:01:42.594Z,47.24
2022-08-18T16:04:10.272Z,47.32
2022-08-18T16:06:37.607Z,47.18
2022-08-18T16:09:05.934Z,47.19
2022-08-18T16:11:33.080Z,47.61
2022-08-18T16:14:00.030Z,47.40
2022-08-18T16:16:35.831Z,47.41
2022-08-18T16:19:04.686Z,47.63
2022-08-18T16:21:31.396Z,47.58
2022-08-18T16:23:58.352Z,47.64
2022-08-18T16:26:25.128Z,47.66
2022-08-18T16:28:52.416Z,47.73
2022-08-18T16:31:24.795Z,47.94
2022-08-18T16:33:55.443Z,47.83
2022-08-18T16:36:25.385Z,48.08
2022-08-18T16:38:53.359Z,48.25
2022-08-18T16:41:20.425Z,48.44
2022-08-18T16:43:47.489Z,48.59
2022-08-18T16:46:21.372Z,48.72
2022-08-18T16:48:49.589Z,48.81
2022-08-18T16:51:17.720Z,49.00
2022-08-18T16:53:46.277Z,49.07
2022-08-18T16:56:17.066Z,49.42
2022-08-18T16:59:02.504Z,49.53
2022-08-18T17:01:50.765Z,49.84
2022-08-18T17:04:20.602Z,49.91
2022-08-18T17:06:48.002Z,50.09
2022-08-18T17:09:15.531Z,50.07
2022-08-18T17:11:51.680Z,50.40
2022-08-18T17:14:20.821Z,50.27
2022-08-18T17:16:49.044Z,50.22
2022-08-18T17:19:15.882Z,50.38
2022-08-18T17:21:43.129Z,50.49
2022-08-18T17:24:11.337Z,50.70
2022-08-18T17:26:56.667Z,50.82
2022-08-18T17:29:48.058Z,51.01
2022-08-18T17:32:24.677Z,51.15
2022-08-18T17:37:12.334Z,51.46
2022-08-18T17:39:43.317Z,51.36
2022-08-18T17:42:29.264Z,51.47
2022-08-18T17:45:05.111Z,51.52
2022-08-18T17:47:38.511Z,51.65
2022-08-18T17:50:28.679Z,51.64
2022-08-18T17:53:00.548Z,51.85
2022-08-18T17:55:30.431Z,51.95
2022-08-18T17:58:06.870Z,52.22
2022-08-18T18:00:33.635Z,52.26
2022-08-18T18:03:00.830Z,52.28
2022-08-18T18:05:32.847Z,52.26
2022-08-18T18:07:59.968Z,52.35
2022-08-18T18:10:27.538Z,52.47
2022-08-18T18:13:11.621Z,52.57
2022-08-18T18:15:40.594Z,52.55
2022-08-18T18:18:41.802Z,52.74
2022-08-18T18:21:14.537Z,52.89
2022-08-18T18:23:43.463Z,53.03
2022-08-18T18:26:34.878Z,53.19
2022-08-18T18:29:12.654Z,53.31
2022-08-18T18:31:40.317Z,53.25
2022-08-18T18:34:23.237Z,53.63
2022-08-18T18:36:54.613Z,53.61
2022-08-18T18:39:23.682Z,53.51
2022-08-18T18:42:14.954Z,53.71
2022-08-18T18:44:49.503Z,53.60
2022-08-18T18:47:24.961Z,53.66
2022-08-18T18:49:59.472Z,53.45
2022-08-18T18:52:41.264Z,53.60
2022-08-18T18:55:18.203Z,53.50
2022-08-18T18:58:07.019Z,53.31
2022-08-18T19:00:54.078Z,53.25
2022-08-18T19:03:22.711Z,53.45
2022-08-18T19:05:50.842Z,53.46
2022-08-18T19:08:33.208Z,53.74
2022-08-18T19:11:07.333Z,53.69
2022-08-18T19:13:39.466Z,53.65
2022-08-18T19:16:24.162Z,53.95
2022-08-18T19:18:59.759Z,54.05
2022-08-18T19:22:03.993Z,54.35
2022-08-18T19:24:27.668Z,54.48
2022-08-18T19:26:59.952Z,54.67
2022-08-18T19:29:30.184Z,54.68
2022-08-18T19:32:06.229Z,54.85
2022-08-18T19:34:44.889Z,55.05
2022-08-18T19:37:50.129Z,55.10
2022-08-18T19:40:18.120Z,54.92
2022-08-18T19:42:54.242Z,55.32
2022-08-18T19:45:35.655Z,55.47
2022-08-18T19:48:07.608Z,55.47
2022-08-18T19:50:47.606Z,55.49
2022-08-18T19:53:39.407Z,55.64
2022-08-18T19:56:43.473Z,55.92
2022-08-18T19:59:27.422Z,55.93
2022-08-18T20:02:21.086Z,56.38
2022-08-18T20:04:57.308Z,56.01
2022-08-18T20:08:01.128Z,56.16
2022-08-18T20:11:08.135Z,56.33
2022-08-18T20:13:43.036Z,56.35
2022-08-18T20:16:14.981Z,56.49
2022-08-18T20:18:42.956Z,56.64
2022-08-18T20:21:46.434Z,56.54
2022-08-18T20:24:38.430Z,56.76
2022-08-18T20:27:36.729Z,56.88
2022-08-18T20:30:26.740Z,56.89
2022-08-18T20:33:10.281Z,56.98
2022-08-18T20:36:03.943Z,57.06
2022-08-18T20:38:35.748Z,57.20
2022-08-18T20:41:27.716Z,57.32
2022-08-18T20:44:01.848Z,57.44
2022-08-18T20:46:43.683Z,57.54
2022-08-18T20:49:28.756Z,57.59
2022-08-18T20:52:04.232Z,57.75
2022-08-18T20:54:58.380Z,57.98
2022-08-18T20:57:26.908Z,58.01
2022-08-18T21:00:14.218Z,58.13
2022-08-18T21:02:41.278Z,58.45
2022-08-18T21:05:16.614Z,58.47
2022-08-18T21:08:10.402Z,58.67
2022-08-18T21:10:37.199Z,58.87
2022-08-18T21:13:04.636Z,59.08
2022-08-18T21:15:38.156Z,59.20
2022-08-18T21:18:21.151Z,59.08
2022-08-18T21:20:49.168Z,59.31
2022-08-18T21:23:24.909Z,59.39
2022-08-18T21:25:53.952Z,59.54
2022-08-18T21:28:21.663Z,59.67
2022-08-18T21:31:42.283Z,59.90
2022-08-18T21:33:52.552Z,60.03
2022-08-18T21:36:20.195Z,60.34
2022-08-18T21:39:05.773Z,60.54
2022-08-18T21:41:33.667Z,60.56
2022-08-18T21:44:07.687Z,60.72
2022-08-18T21:46:34.421Z,60.94
2022-08-18T21:49:02.579Z,61.02
2022-08-18T21:51:31.288Z,61.20
2022-08-18T21:53:58.883Z,61.43
2022-08-18T21:56:30.991Z,61.62
2022-08-18T21:59:18.539Z,61.75
2022-08-18T22:01:53.505Z,61.97
2022-08-18T22:04:28.858Z,61.99
2022-08-18T22:07:34.191Z,62.22
2022-08-18T22:10:37.146Z,62.47
2022-08-18T22:13:22.455Z,62.73
2022-08-18T22:15:49.987Z,62.94
2022-08-18T22:18:16.686Z,63.22
2022-08-18T22:20:59.377Z,63.33
2022-08-18T22:23:51.335Z,63.44
2022-08-18T22:26:22.533Z,63.74
2022-08-18T22:29:01.367Z,63.90
2022-08-18T22:31:33.305Z,64.03
2022-08-18T22:34:07.293Z,64.20
2022-08-18T22:36:38.881Z,64.36
2022-08-18T22:39:08.569Z,64.48
2022-08-18T22:41:35.789Z,64.63
2022-08-18T22:44:05.566Z,64.77
2022-08-18T22:46:33.123Z,64.93
2022-08-18T22:49:00.232Z,64.96
2022-08-18T22:51:28.087Z,65.13
2022-08-18T22:53:55.828Z,65.27
2022-08-18T22:56:34.283Z,65.32
2022-08-18T22:59:05.864Z,65.50
2022-08-18T23:01:45.048Z,65.61
2022-08-18T23:04:11.865Z,65.74
2022-08-18T23:06:38.580Z,65.86
2022-08-18T23:09:05.440Z,65.97
2022-08-18T23:11:32.207Z,66.07
2022-08-18T23:14:04.870Z,66.18
2022-08-18T23:16:32.441Z,66.32
2022-08-18T23:19:03.619Z,66.42
2022-08-18T23:21:34.923Z,66.50
2022-08-18T23:24:06.335Z,66.59
2022-08-18T23:26:34.266Z,66.71
2022-08-18T23:29:01.535Z,66.79
2022-08-18T23:31:30.257Z,66.94
2022-08-18T23:33:57.587Z,67.00
2022-08-18T23:36:24.476Z,67.03
2022-08-18T23:38:51.194Z,67.13
2022-08-18T23:41:17.954Z,67.35
2022-08-18T23:43:48.265Z,67.40
2022-08-18T23:46:22.064Z,67.53
2022-08-18T23:48:50.707Z,67.70
2022-08-18T23:51:29.388Z,67.83
2022-08-18T23:53:58.950Z,67.92
2022-08-18T23:56:27.990Z,68.01
2022-08-18T23:58:56.376Z,68.04
